PWSweather.com
Personal Weather Stations
Station Observations
SANDHURSTWX
SandhurstGB

SandhurstGB

Lat: 51.3522, Lon: -0.7739

Elevation: 272.3

Station Type: Davis VP2

www.sandhurstweather.org.uk

High Low Average
Temperature 51.9°F11.1°C 45.1°F7.3°C 48.2°F9.0°C
Dew Point 46.4°F8.0°C 41.2°F5.1°C 44.6°F7.0°C
Winds 8.1 mph 13.0 kmh Calm Calm 3.0 mph WSW4.8 kmh WSW
Wind Gusts 12.7 mph20.4 kmh 2.3 mph3.7 kmh 6.0 mph9.7 kmh
Humidity 93% 78% 88%
Pressure 30.12 in1020.0 mb 29.99 in1015.6 mb -
Precipitation 0.00 in0.0 mm - -
Hour Temp Dew Point Humidity Winds Wind Gusts Pressure Precip Precip Rate Daily Precip Total
12:00 AM 47.7°F8.7°C 45.5°F7.5°C 92% 2.3 mph W3.7 kmh W 3.5 mph5.6 kmh 29.99 in1015.6 mb - 0.00 in0.0 mm 0.00 in0.0 mm
01:00 AM 47.1°F8.4°C 44.9°F7.2°C 92% 3.5 mph NW5.6 kmh NW 5.8 mph9.3 kmh 30.00 in1015.9 mb - 0.00 in0.0 mm 0.00 in0.0 mm
02:00 AM 47.4°F8.6°C 45.5°F7.5°C 93% 4.6 mph WNW7.4 kmh WNW 9.2 mph14.8 kmh 30.01 in1016.3 mb - 0.00 in0.0 mm 0.00 in0.0 mm
03:00 AM 47.5°F8.6°C 45.6°F7.6°C 93% 4.6 mph WNW7.4 kmh WNW 6.9 mph11.1 kmh 30.02 in1016.6 mb - 0.00 in0.0 mm 0.00 in0.0 mm
04:00 AM 47.4°F8.6°C 45.4°F7.4°C 93% 5.8 mph WNW9.3 kmh WNW 9.2 mph14.8 kmh 30.03 in1016.9 mb - 0.00 in0.0 mm 0.00 in0.0 mm
05:00 AM 46.7°F8.2°C 44.5°F6.9°C 92% 8.1 mph NW13.0 kmh NW 12.7 mph20.4 kmh 30.05 in1017.6 mb - 0.00 in0.0 mm 0.00 in0.0 mm
06:00 AM 45.8°F7.7°C 43.9°F6.6°C 93% 5.8 mph NW9.3 kmh NW 9.2 mph14.8 kmh 30.05 in1017.6 mb - 0.00 in0.0 mm 0.00 in0.0 mm
07:00 AM 46.4°F8.0°C 43.9°F6.6°C 91% 3.5 mph WNW5.6 kmh WNW 3.5 mph5.6 kmh 30.08 in1018.6 mb - 0.00 in0.0 mm 0.00 in0.0 mm
08:00 AM 46.4°F8.0°C 43.9°F6.6°C 91% 3.5 mph NW5.6 kmh NW 5.8 mph9.3 kmh 30.10 in1019.3 mb - 0.00 in0.0 mm 0.00 in0.0 mm
09:00 AM 47.1°F8.4°C 44.3°F6.8°C 90% 3.5 mph WNW5.6 kmh WNW 4.6 mph7.4 kmh 30.11 in1019.6 mb - 0.00 in0.0 mm 0.00 in0.0 mm
10:00 AM 48.1°F8.9°C 44.7°F7.1°C 88% 3.5 mph NW5.6 kmh NW 6.9 mph11.1 kmh 30.11 in1019.6 mb - 0.00 in0.0 mm 0.00 in0.0 mm
11:00 AM 49.2°F9.6°C 44.8°F7.1°C 85% 3.5 mph NW5.6 kmh NW 8.1 mph13.0 kmh 30.12 in1020.0 mb - 0.00 in0.0 mm 0.00 in0.0 mm
12:00 PM 51.2°F10.7°C 45.3°F7.4°C 80% 3.5 mph NW5.6 kmh NW 4.6 mph7.4 kmh 30.11 in1019.6 mb - 0.00 in0.0 mm 0.00 in0.0 mm
01:00 PM 51.9°F11.1°C 45.3°F7.4°C 78% Calm Calm 2.3 mph3.7 kmh 30.10 in1019.3 mb - 0.00 in0.0 mm 0.00 in0.0 mm
02:00 PM 51.4°F10.8°C 45.8°F7.7°C 81% 1.2 mph WSW1.9 kmh WSW 3.5 mph5.6 kmh 30.09 in1019.0 mb - 0.00 in0.0 mm 0.00 in0.0 mm
03:00 PM 51.7°F10.9°C 46.4°F8.0°C 82% 1.2 mph S1.9 kmh S 2.3 mph3.7 kmh 30.08 in1018.6 mb - 0.00 in0.0 mm 0.00 in0.0 mm
04:00 PM 51.6°F10.9°C 46.3°F7.9°C 82% 1.2 mph SW1.9 kmh SW 2.3 mph3.7 kmh 30.08 in1018.6 mb - 0.00 in0.0 mm 0.00 in0.0 mm
05:00 PM 51.0°F10.6°C 45.7°F7.6°C 82% 2.3 mph S3.7 kmh S 2.3 mph3.7 kmh 30.07 in1018.3 mb - 0.00 in0.0 mm 0.00 in0.0 mm
06:00 PM 50.2°F10.1°C 45.2°F7.3°C 83% 2.3 mph SSE3.7 kmh SSE 4.6 mph7.4 kmh 30.07 in1018.3 mb - 0.00 in0.0 mm 0.00 in0.0 mm
07:00 PM 48.2°F9.0°C 44.2°F6.8°C 86% 4.6 mph SSE7.4 kmh SSE 5.8 mph9.3 kmh 30.06 in1017.9 mb - 0.00 in0.0 mm 0.00 in0.0 mm
08:00 PM 46.0°F7.8°C 42.9°F6.1°C 89% 4.6 mph SSE7.4 kmh SSE 8.1 mph13.0 kmh 30.05 in1017.6 mb - 0.00 in0.0 mm 0.00 in0.0 mm
09:00 PM 45.4°F7.4°C 42.9°F6.1°C 91% 1.2 mph SSE1.9 kmh SSE 2.3 mph3.7 kmh 30.04 in1017.3 mb - 0.00 in0.0 mm 0.00 in0.0 mm
10:00 PM 45.6°F7.6°C 41.9°F5.5°C 87% 2.3 mph SSE3.7 kmh SSE 2.3 mph3.7 kmh 30.01 in1016.3 mb - 0.00 in0.0 mm 0.00 in0.0 mm
11:00 PM 45.1°F7.3°C 41.2°F5.1°C 86% 3.5 mph SSE5.6 kmh SSE 6.9 mph11.1 kmh 29.99 in1015.6 mb - 0.00 in0.0 mm 0.00 in0.0 mm